createdAt,value
2018-07-17T00:00:00.891Z,14.4
2018-07-17T00:05:00.797Z,14.0
2018-07-17T00:10:00.860Z,14.5
2018-07-17T00:15:00.768Z,14.2
2018-07-17T00:20:00.931Z,14.2
2018-07-17T00:25:00.807Z,14.0
2018-07-17T00:30:00.905Z,14.1
2018-07-17T00:35:00.828Z,13.5
2018-07-17T00:40:00.845Z,13.5
2018-07-17T00:45:00.833Z,13.7
2018-07-17T00:50:00.921Z,14.2
2018-07-17T01:00:00.878Z,14.0
2018-07-17T01:05:00.780Z,13.6
2018-07-17T01:10:00.975Z,14.0
2018-07-17T01:15:00.820Z,13.7
2018-07-17T01:25:00.983Z,13.6
2018-07-17T01:30:00.924Z,14.4
2018-07-17T01:35:00.851Z,14.0
2018-07-17T01:40:00.867Z,14.0
2018-07-17T01:45:00.851Z,14.6
2018-07-17T01:50:00.834Z,14.4
2018-07-17T01:55:00.847Z,14.2
2018-07-17T02:00:00.920Z,14.4
2018-07-17T02:05:00.894Z,14.0
2018-07-17T02:10:01.006Z,14.0
2018-07-17T02:15:00.865Z,14.8
2018-07-17T02:20:00.876Z,15.0
2018-07-17T02:25:00.878Z,15.1
2018-07-17T02:30:00.944Z,15.3
2018-07-17T02:35:00.866Z,15.6
2018-07-17T02:40:00.965Z,15.6
2018-07-17T02:45:00.842Z,16.2
2018-07-17T02:50:00.875Z,16.5
2018-07-17T02:55:00.874Z,17.0
2018-07-17T03:00:00.878Z,17.0
2018-07-17T03:05:00.877Z,17.2
2018-07-17T03:10:00.961Z,16.5
2018-07-17T03:15:00.885Z,15.9
2018-07-17T03:20:01.012Z,15.8
2018-07-17T03:25:00.885Z,15.5
2018-07-17T03:30:01.018Z,15.7
2018-07-17T03:35:00.877Z,15.9
2018-07-17T03:40:00.948Z,16.0
2018-07-17T03:45:00.881Z,16.1
2018-07-17T03:55:00.861Z,15.8
2018-07-17T04:00:00.917Z,15.6
2018-07-17T04:05:00.852Z,15.4
2018-07-17T04:10:00.960Z,15.6
2018-07-17T04:15:00.866Z,15.8
2018-07-17T04:20:00.933Z,16.0
2018-07-17T04:25:00.866Z,16.6
2018-07-17T04:30:00.861Z,16.8
2018-07-17T04:35:00.890Z,16.6
2018-07-17T04:40:00.979Z,17.1
2018-07-17T04:45:00.887Z,16.9
2018-07-17T04:50:00.966Z,16.2
2018-07-17T04:55:00.864Z,16.6
2018-07-17T05:00:01.031Z,16.2
2018-07-17T05:05:00.888Z,16.0
2018-07-17T05:10:01.003Z,15.7
2018-07-17T05:15:00.879Z,16.0
2018-07-17T05:20:01.068Z,15.6
2018-07-17T05:25:00.883Z,15.6
2018-07-17T05:30:00.911Z,15.4
2018-07-17T05:35:01.008Z,15.9
2018-07-17T05:40:01.013Z,16.3
2018-07-17T05:45:00.820Z,16.8
2018-07-17T05:50:01.015Z,17.2
2018-07-17T05:55:00.851Z,18.1
2018-07-17T06:00:00.952Z,18.0
2018-07-17T06:05:00.859Z,17.6
2018-07-17T06:10:01.042Z,17.3
2018-07-17T06:15:00.864Z,17.5
2018-07-17T06:20:01.222Z,16.9
2018-07-17T06:25:01.033Z,15.8
2018-07-17T06:30:00.958Z,15.6
2018-07-17T06:35:00.895Z,16.3
2018-07-17T06:40:00.959Z,15.6
2018-07-17T06:45:00.964Z,15.2
2018-07-17T06:50:06.048Z,15.3
2018-07-17T06:55:00.901Z,14.5
2018-07-17T07:00:00.971Z,13.3
2018-07-17T07:05:00.974Z,13.2
2018-07-17T07:10:00.908Z,12.0
2018-07-17T07:15:00.906Z,11.6
2018-07-17T07:20:00.907Z,10.8
2018-07-17T07:25:00.910Z,10.0
2018-07-17T07:30:01.041Z,9.0
2018-07-17T07:35:00.878Z,8.6
2018-07-17T07:40:00.980Z,8.0
2018-07-17T07:45:00.882Z,8.0
2018-07-17T07:50:00.977Z,7.8
2018-07-17T07:55:00.911Z,7.5
2018-07-17T08:00:01.044Z,7.9
2018-07-17T08:05:00.921Z,7.7
2018-07-17T08:10:00.985Z,7.3
2018-07-17T08:15:00.932Z,7.6
2018-07-17T08:20:01.057Z,8.0
2018-07-17T08:25:00.922Z,8.4
2018-07-17T08:30:01.055Z,9.0
2018-07-17T08:35:00.854Z,9.6
2018-07-17T08:40:00.985Z,9.7
2018-07-17T08:45:00.985Z,9.9
2018-07-17T08:50:00.959Z,9.8
2018-07-17T09:00:00.933Z,9.6
2018-07-17T09:05:01.124Z,9.9
2018-07-17T09:10:01.096Z,9.7
2018-07-17T09:15:00.903Z,9.6
2018-07-17T09:20:01.003Z,9.9
2018-07-17T09:25:00.946Z,10.2
2018-07-17T09:30:01.003Z,10.6
2018-07-17T09:35:00.882Z,10.8
2018-07-17T09:40:01.078Z,11.4
2018-07-17T09:45:00.944Z,11.0
2018-07-17T09:50:01.021Z,11.6
2018-07-17T10:00:01.015Z,12.2
2018-07-17T10:05:00.975Z,12.0
2018-07-17T10:10:01.083Z,12.6
2018-07-17T10:15:00.981Z,12.3
2018-07-17T10:20:01.130Z,11.8
2018-07-17T10:25:01.003Z,11.5
2018-07-17T10:30:01.127Z,11.7
2018-07-17T10:35:01.271Z,12.2
2018-07-17T10:40:01.005Z,12.1
2018-07-17T10:45:01.015Z,12.2
2018-07-17T10:50:01.066Z,12.2
2018-07-17T10:55:00.986Z,12.1
2018-07-17T11:00:01.142Z,11.0
2018-07-17T11:05:01.009Z,11.6
2018-07-17T11:10:01.071Z,11.3
2018-07-17T11:15:00.998Z,11.5
2018-07-17T11:20:01.283Z,11.4
2018-07-17T11:25:01.001Z,11.7
2018-07-17T11:30:01.066Z,11.5
2018-07-17T11:35:01.004Z,11.8
2018-07-17T11:40:01.145Z,11.5
2018-07-17T11:45:00.978Z,11.8
2018-07-17T11:50:01.112Z,12.0
2018-07-17T11:55:01.072Z,11.9
2018-07-17T12:00:01.185Z,11.8
2018-07-17T12:05:01.021Z,12.6
2018-07-17T12:10:01.055Z,12.6
2018-07-17T12:15:00.965Z,12.8
2018-07-17T12:20:01.528Z,13.3
2018-07-17T12:30:01.045Z,13.2
2018-07-17T12:35:01.280Z,13.8
2018-07-17T12:40:01.066Z,13.4
2018-07-17T12:45:01.015Z,12.6
2018-07-17T12:50:01.537Z,12.5
2018-07-17T12:55:01.087Z,12.4
2018-07-17T13:00:01.080Z,12.3
2018-07-17T13:05:00.978Z,12.5
2018-07-17T13:10:01.073Z,13.2
2018-07-17T13:15:01.004Z,13.1
2018-07-17T13:20:01.092Z,13.0
2018-07-17T13:30:02.135Z,12.6
2018-07-17T13:35:01.036Z,12.2
2018-07-17T13:40:01.109Z,12.5
2018-07-17T13:45:01.031Z,12.4
2018-07-17T13:50:01.144Z,12.1
2018-07-17T13:55:01.040Z,12.6
2018-07-17T14:00:01.394Z,12.6
2018-07-17T14:05:00.994Z,12.8
2018-07-17T14:10:01.035Z,13.2
2018-07-17T14:15:01.001Z,13.2
2018-07-17T14:20:01.100Z,13.0
2018-07-17T14:25:01.004Z,13.0
2018-07-17T14:30:01.137Z,12.7
2018-07-17T14:35:01.006Z,12.0
2018-07-17T14:40:01.036Z,11.8
2018-07-17T14:45:01.037Z,11.7
2018-07-17T14:50:01.052Z,11.7
2018-07-17T14:55:01.051Z,11.7
2018-07-17T15:00:01.228Z,12.1
2018-07-17T15:05:01.024Z,11.8
2018-07-17T15:10:01.373Z,11.4
2018-07-17T15:15:00.993Z,11.5
2018-07-17T15:20:01.116Z,10.7
2018-07-17T15:25:01.049Z,10.4
2018-07-17T15:30:01.116Z,11.2
2018-07-17T15:40:01.127Z,11.9
2018-07-17T15:45:01.077Z,12.8
2018-07-17T15:50:01.154Z,12.6
2018-07-17T15:55:01.071Z,11.8
2018-07-17T16:00:01.328Z,11.5
2018-07-17T16:05:01.036Z,10.8
2018-07-17T16:10:01.243Z,10.4
2018-07-17T16:15:01.076Z,10.6
2018-07-17T16:20:01.144Z,10.8
2018-07-17T16:25:01.076Z,11.4
2018-07-17T16:30:01.147Z,11.5
2018-07-17T16:35:01.077Z,11.4
2018-07-17T16:40:01.202Z,11.2
2018-07-17T16:45:01.076Z,12.4
2018-07-17T16:50:01.144Z,12.1
2018-07-17T16:55:01.081Z,12.7
2018-07-17T17:00:01.154Z,12.6
2018-07-17T17:05:01.089Z,12.7
2018-07-17T17:10:01.214Z,11.5
2018-07-17T17:15:01.131Z,11.2
2018-07-17T17:20:01.220Z,10.8
2018-07-17T17:25:01.093Z,11.0
2018-07-17T17:30:01.159Z,11.3
2018-07-17T17:35:01.071Z,11.2
2018-07-17T17:40:01.225Z,11.1
2018-07-17T17:45:01.137Z,11.4
2018-07-17T17:55:01.290Z,11.0
2018-07-17T18:00:01.205Z,11.3
2018-07-17T18:05:01.125Z,11.8
2018-07-17T18:10:01.272Z,12.0
2018-07-17T18:15:01.137Z,12.2
2018-07-17T18:20:01.222Z,12.4
2018-07-17T18:25:01.117Z,12.7
2018-07-17T18:30:01.185Z,12.5
2018-07-17T18:35:01.084Z,12.5
2018-07-17T18:40:01.273Z,11.8
2018-07-17T18:45:01.122Z,12.2
2018-07-17T18:50:13.366Z,12.2
2018-07-17T18:55:01.236Z,12.4
2018-07-17T19:00:01.216Z,12.2
2018-07-17T19:05:01.156Z,13.0
2018-07-17T19:10:01.285Z,12.5
2018-07-17T19:15:01.163Z,12.7
2018-07-17T19:20:01.125Z,12.7
2018-07-17T19:25:01.104Z,13.1
2018-07-17T19:30:01.416Z,12.9
2018-07-17T19:35:01.105Z,13.0
2018-07-17T19:40:01.199Z,13.2
2018-07-17T19:45:01.207Z,13.4
2018-07-17T19:50:01.200Z,13.2
2018-07-17T19:55:01.201Z,13.8
2018-07-17T20:00:06.239Z,14.0
2018-07-17T20:05:01.164Z,13.7
2018-07-17T20:10:01.210Z,13.4
2018-07-17T20:15:01.150Z,13.6
2018-07-17T20:20:01.213Z,13.8
2018-07-17T20:25:01.148Z,15.3
2018-07-17T20:30:01.235Z,17.8
2018-07-17T20:35:01.154Z,21.4
2018-07-17T20:40:01.158Z,24.8
2018-07-17T20:45:01.150Z,28.0
2018-07-17T20:50:01.222Z,30.5
2018-07-17T20:55:01.216Z,32.2
2018-07-17T21:00:01.287Z,33.5
2018-07-17T21:05:01.255Z,34.7
2018-07-17T21:10:01.225Z,35.7
2018-07-17T21:15:01.160Z,36.7
2018-07-17T21:20:01.219Z,38.2
2018-07-17T21:25:01.162Z,39.2
2018-07-17T21:30:01.159Z,40.4
2018-07-17T21:40:01.295Z,41.6
2018-07-17T21:45:01.164Z,42.0
2018-07-17T21:50:01.177Z,42.4
2018-07-17T21:55:01.178Z,43.0
2018-07-17T22:00:01.170Z,44.4
2018-07-17T22:05:01.174Z,44.5
2018-07-17T22:10:01.304Z,44.1
2018-07-17T22:15:01.170Z,43.9
2018-07-17T22:20:01.241Z,43.1
2018-07-17T22:25:01.176Z,41.4
2018-07-17T22:30:01.180Z,40.6
2018-07-17T22:35:01.187Z,40.3
2018-07-17T22:40:01.213Z,39.8
2018-07-17T22:45:01.221Z,39.1
2018-07-17T22:50:01.296Z,39.9
2018-07-17T22:55:01.194Z,39.7
2018-07-17T23:00:01.224Z,39.6
2018-07-17T23:05:01.190Z,39.1
2018-07-17T23:10:01.252Z,40.0
2018-07-17T23:15:01.189Z,38.9
2018-07-17T23:20:01.194Z,39.1
2018-07-17T23:25:01.190Z,38.6
2018-07-17T23:30:01.264Z,38.5
2018-07-17T23:35:01.200Z,37.3
2018-07-17T23:40:01.269Z,36.6
2018-07-17T23:45:01.326Z,35.9
2018-07-17T23:50:01.215Z,35.9
2018-07-17T23:55:01.200Z,35.4
